Berkeley, CA (94708)

8:59 PM PDT on September 16, 2014 (GMT -0700)
Berkeley Highlands Terrace | Change Station
CLOSE
Current Station
Personal Weather Station
Location: Kensington, CA
Elevation: 667 ft
Nearby Weather Stations

Elev 667 ft 37.91 °N, 122.28 °W | Updated 3 seconds ago

Partly Cloudy
Partly Cloudy
62.6 °F
Feels Like 62.6 °F
N
3.1
Wind Variable Wind from SSW
Gusts 3.1 mph

Today
High -- | Low -- °F
--% Chance of Precip.
Yesterday
High -- | Low -- °F
Precip. -- in
6:51 AM 7:15 PM
Last Quarter, 39% visible
Pressure 29.82 in
Visibility 10.0 miles
Clouds Few 15000 ft
Mostly Cloudy 18000 ft
Dew Point 41 °F
Humidity 45%
Rainfall 0.00 in
Snow Depth 0 in , 0 in , 0 in
UV 0 out of 12
Pollen 5.20 out of 12
Air Quality Not available.
Flu Activity Not available.
METAR KOAK 170253Z 29010KT 10SM FEW150 BKN180 19/14 A2982 RMK AO2 SLP098 T01940144 53002

More Conditions Fewer Conditions

Pressure 29.82 in
Visibility 10.0 miles
Clouds Few 15000 ft
Mostly Cloudy 18000 ft
Dew Point 41 °F
Humidity 45%
Rainfall 0.00 in
Snow Depth 0 in , 0 in , 0 in
UV 0 out of 12
Pollen 5.20 out of 12
Air Quality Not available.
Flu Activity Not available.
METAR KOAK 170253Z 29010KT 10SM FEW150 BKN180 19/14 A2982 RMK AO2 SLP098 T01940144 53002

More Conditions Fewer Conditions

10-Day Weather Forecast

Almanac

Astronomy

Sep. 16, 2014 Rise Set
Actual Time 6:51 AM PDT 7:15 PM PDT
Civil Twilight 6:25 AM PDT 7:41 PM PDT
Nautical Twilight 5:54 AM PDT 8:12 PM PDT
Astronomical Twilight 5:22 AM PDT 8:43 PM PDT
Moon 12:10 AM PDT (9/16) 2:39 PM PDT (9/16)
Length of Visible Light 13h 16m
Length of Day
12h 23m
Tomorrow will be 2m 24s shorter.
Last Quarter, 39% of the Moon is Illuminated
Today
Last Quarter
Sep 24
New
Oct 1
First Quarter
Oct 8
Full
Oct 15
Last Quarter

Today's Extremes

State Highs State Lows

Community

WunderPhotos

Upload Photos

1,753,956 photos uploaded!

Nearby

Air Quality

  Air Quality AQ Index Pollutant
Yesterday Good
PM2.5
Yesterday Good
OZONE
Tuesday Good
PM2.5
Wednesday Good
PM2.5
Thursday Good
PM2.5
Friday Good
PM2.5
Saturday Moderate
PM2.5
Sunday Moderate
PM2.5

Snow Depth

Station Depth Elevation
Monitor Pass 0 in 8350 ft
Hagan's Meadow 0 in 8000 ft
Echo Peak 0 in 7800 ft
Adin Mountain 0 in 6200 ft
Summit Meadow 1 in 9122 ft

Earthquake Activity

City Distance Mag. Time & Date
Cobb, California 66 miles 2.7 1:23 PM PDT
2014-09-16
Covelo, California 136 miles 3.3 1:17 PM PDT
2014-09-14
Cobb, California 70 miles 2.7 11:07 AM PDT
2014-09-14
Minimum magnitude displayed is 2.5.

Coastal Water Temperatures

Place Temperature
San Francisco, CA 64.0 °F
Richmond, CA 68.0 °F
Port Chicago, CA 71.1 °F

Nearby Weather Stations